KEKM

Elkhart Municipal Airport

Elkhart, Indiana, USA
METAR KEKM 140152Z 00000KT 10SM OVC038 M03/M08 A3043 RMK AO2 LAST
Observed Flight Rules
Nov-14 @ 01:52 UTC (3 hours ago) Visual Flight Rules
Visibility Clouds
10 miles
  • Overcast at 3,800' AGL
Temperatures Readings
Current -3°C / 27°F
Dewpoint -8°C / 18°F
Humidity 69%
Altimeter 30.43" Hg
Pressure 1030 hPa
Elevation 237
METAR KEKM 140152Z 00000KT 10SM OVC038 M03/M08 A3043 RMK AO2 LAST
Observed Flight Rules
Nov-14 @ 01:52 UTC
(3 hours ago)
VFR
Clouds
  • Overcast at 3,800' AGL
Temperature Dewpoint
-3°C / 27°F -8°C / 18°F
Humidity Altimeter Pressure
69% 30.43" Hg 1030 hPa